createdAt,value
2018-10-11T00:01:49.728Z,98877.03
2018-10-11T00:04:20.537Z,98871.27
2018-10-11T00:06:50.704Z,98868.73
2018-10-11T00:09:19.105Z,98861.91
2018-10-11T00:11:47.257Z,98855.95
2018-10-11T00:14:15.440Z,98855.93
2018-10-11T00:16:43.604Z,98850.86
2018-10-11T00:19:11.766Z,98847.66
2018-10-11T00:21:40.103Z,98849.66
2018-10-11T00:24:08.346Z,98852.25
2018-10-11T00:26:36.517Z,98872.56
2018-10-11T00:29:04.680Z,98882.98
2018-10-11T00:31:32.846Z,98879.97
2018-10-11T00:34:01.021Z,98889.08
2018-10-11T00:36:29.208Z,98886.38
2018-10-11T00:38:57.361Z,98885.88
2018-10-11T00:41:25.520Z,98890.13
2018-10-11T00:43:53.712Z,98880.66
2018-10-11T00:46:21.899Z,98880.54
2018-10-11T00:48:50.065Z,98869.43
2018-10-11T00:51:18.231Z,98877.03
2018-10-11T00:53:46.400Z,98885.40
2018-10-11T00:56:14.560Z,98874.17
2018-10-11T00:58:42.827Z,98875.78
2018-10-11T01:01:10.976Z,98872.28
2018-10-11T01:03:39.449Z,98856.53
2018-10-11T01:06:07.998Z,98866.34
2018-10-11T01:08:36.160Z,98857.52
2018-10-11T01:11:04.383Z,98858.84
2018-10-11T01:13:32.604Z,98872.84
2018-10-11T01:16:00.886Z,98855.94
2018-10-11T01:18:29.116Z,98854.95
2018-10-11T01:20:57.290Z,98861.13
2018-10-11T01:23:25.556Z,98866.02
2018-10-11T01:25:53.710Z,98864.86
2018-10-11T01:28:21.897Z,98852.94
2018-10-11T01:30:55.525Z,98859.83
2018-10-11T01:33:23.705Z,98860.22
2018-10-11T01:35:51.870Z,98859.88
2018-10-11T01:38:20.028Z,98858.55
2018-10-11T01:40:48.184Z,98857.51
2018-10-11T01:43:16.349Z,98856.50
2018-10-11T01:45:44.548Z,98860.41
2018-10-11T01:48:12.693Z,98859.24
2018-10-11T01:50:40.863Z,98862.61
2018-10-11T01:53:09.557Z,98860.66
2018-10-11T01:55:37.746Z,98850.52
2018-10-11T01:58:05.961Z,98846.23
2018-10-11T02:00:34.109Z,98847.48
2018-10-11T02:03:02.280Z,98846.20
2018-10-11T02:05:30.482Z,98844.94
2018-10-11T02:07:59.124Z,98838.96
2018-10-11T02:10:28.413Z,98845.88
2018-10-11T02:12:57.418Z,98846.31
2018-10-11T02:15:26.507Z,98838.98
2018-10-11T02:17:54.877Z,98843.86
2018-10-11T02:20:23.044Z,98838.79
2018-10-11T02:22:51.228Z,98842.67
2018-10-11T02:25:19.393Z,98842.41
2018-10-11T02:27:47.603Z,98842.47
2018-10-11T02:30:15.761Z,98841.19
2018-10-11T02:32:43.952Z,98848.16
2018-10-11T02:35:12.617Z,98848.23
2018-10-11T02:37:41.196Z,98848.28
2018-10-11T02:40:09.572Z,98849.72
2018-10-11T02:42:37.746Z,98847.20
2018-10-11T02:45:06.262Z,98854.84
2018-10-11T02:47:34.492Z,98842.06
2018-10-11T02:50:02.658Z,98837.47
2018-10-11T02:52:30.828Z,98824.45
2018-10-11T02:54:59.013Z,98819.27
2018-10-11T02:57:38.718Z,98825.52
2018-10-11T03:00:06.873Z,98817.63
2018-10-11T03:02:36.284Z,98815.03
2018-10-11T03:05:08.868Z,98808.84
2018-10-11T03:07:37.016Z,98814.88
2018-10-11T03:10:05.170Z,98812.67
2018-10-11T03:12:33.355Z,98807.11
2018-10-11T03:15:01.513Z,98804.84
2018-10-11T03:17:29.668Z,98801.45
2018-10-11T03:19:57.841Z,98794.80
2018-10-11T03:22:26.001Z,98791.09
2018-10-11T03:24:54.251Z,98783.09
2018-10-11T03:27:22.420Z,98791.91
2018-10-11T03:29:50.653Z,98798.14
2018-10-11T03:32:18.879Z,98808.55
2018-10-11T03:34:47.050Z,98812.91
2018-10-11T03:37:15.225Z,98819.47
2018-10-11T03:39:43.396Z,98829.97
2018-10-11T03:42:11.553Z,98835.15
2018-10-11T03:44:39.760Z,98838.95
2018-10-11T03:47:07.973Z,98837.88
2018-10-11T03:49:36.130Z,98836.09
2018-10-11T03:52:04.302Z,98835.15
2018-10-11T03:54:32.499Z,98853.04
2018-10-11T03:57:00.650Z,98854.97
2018-10-11T03:59:28.822Z,98846.52
2018-10-11T04:01:56.979Z,98849.75
2018-10-11T04:04:25.270Z,98846.76
2018-10-11T04:06:53.438Z,98844.38
2018-10-11T04:09:21.599Z,98852.07
2018-10-11T04:11:49.764Z,98852.01
2018-10-11T04:14:17.930Z,98850.95
2018-10-11T04:16:46.495Z,98863.70
2018-10-11T04:19:14.656Z,98872.86
2018-10-11T04:21:42.818Z,98869.89
2018-10-11T04:24:11.031Z,98867.66
2018-10-11T04:26:39.207Z,98866.97
2018-10-11T04:29:07.442Z,98870.41
2018-10-11T04:31:35.596Z,98879.86
2018-10-11T04:34:03.766Z,98889.64
2018-10-11T04:36:32.348Z,98886.72
2018-10-11T04:39:00.509Z,98885.05
2018-10-11T04:41:29.988Z,98889.64
2018-10-11T04:43:59.369Z,98883.73
2018-10-11T04:46:29.144Z,98890.06
2018-10-11T04:48:58.636Z,98890.59
2018-10-11T04:51:26.797Z,98892.88
2018-10-11T04:53:54.968Z,98900.92
2018-10-11T04:56:24.775Z,98893.78
2018-10-11T04:58:53.012Z,98912.27
2018-10-11T05:01:21.434Z,98922.38
2018-10-11T05:03:51.056Z,98925.41
2018-10-11T05:06:21.563Z,98927.41
2018-10-11T05:08:49.852Z,98930.94
2018-10-11T05:11:18.126Z,98923.19
2018-10-11T05:13:50.164Z,98918.06
2018-10-11T05:16:18.677Z,98918.00
2018-10-11T05:19:03.749Z,98923.95
2018-10-11T05:21:31.959Z,98928.16
2018-10-11T05:24:00.119Z,98928.34
2018-10-11T05:26:28.293Z,98928.76
2018-10-11T05:28:56.448Z,98929.39
2018-10-11T05:31:24.646Z,98915.02
2018-10-11T05:33:53.897Z,98906.69
2018-10-11T05:36:22.112Z,98909.33
2018-10-11T05:38:50.280Z,98909.09
2018-10-11T05:41:19.355Z,98906.45
2018-10-11T05:43:47.562Z,98902.42
2018-10-11T05:46:31.701Z,98906.52
2018-10-11T05:49:01.212Z,98912.04
2018-10-11T05:51:30.392Z,98917.94
2018-10-11T05:54:00.498Z,98922.39
2018-10-11T05:56:30.357Z,98925.69
2018-10-11T05:58:59.140Z,98925.41
2018-10-11T06:01:27.457Z,98925.88
2018-10-11T06:03:56.491Z,98926.67
2018-10-11T06:06:24.722Z,98929.33
2018-10-11T06:08:53.749Z,98935.28
2018-10-11T06:11:21.944Z,98942.52
2018-10-11T06:13:50.971Z,98942.95
2018-10-11T06:16:19.132Z,98957.52
2018-10-11T06:18:47.284Z,98953.83
2018-10-11T06:21:15.680Z,98961.56
2018-10-11T06:23:43.936Z,98950.37
2018-10-11T06:26:12.595Z,98951.37
2018-10-11T06:28:40.796Z,98951.93
2018-10-11T06:31:08.958Z,98945.98
2018-10-11T06:33:41.981Z,98943.13
2018-10-11T06:36:10.188Z,98949.66
2018-10-11T06:38:38.533Z,98954.02
2018-10-11T06:41:07.044Z,98951.82
2018-10-11T06:43:36.924Z,98963.45
2018-10-11T06:46:05.086Z,98956.44
2018-10-11T06:48:33.863Z,98963.09
2018-10-11T06:51:03.207Z,98967.45
2018-10-11T06:53:32.365Z,98966.50
2018-10-11T06:56:03.010Z,98968.48
2018-10-11T06:58:32.561Z,98969.96
2018-10-11T07:01:02.604Z,98977.78
2018-10-11T07:03:31.613Z,98971.41
2018-10-11T07:05:59.809Z,98966.69
2018-10-11T07:08:28.002Z,98966.82
2018-10-11T07:10:57.565Z,98973.13
2018-10-11T07:13:26.938Z,98970.75
2018-10-11T07:15:56.046Z,98966.13
2018-10-11T07:18:26.059Z,98973.61
2018-10-11T07:20:56.591Z,98973.46
2018-10-11T07:23:26.214Z,98971.36
2018-10-11T07:25:54.436Z,98976.42
2018-10-11T07:28:22.685Z,98970.38
2018-10-11T07:30:50.862Z,98973.20
2018-10-11T07:33:19.033Z,98975.64
2018-10-11T07:35:47.228Z,98976.91
2018-10-11T07:38:15.539Z,98978.96
2018-10-11T07:40:43.812Z,98975.23
2018-10-11T07:43:11.888Z,98981.03
2018-10-11T07:45:40.102Z,98981.91
2018-10-11T07:48:08.320Z,98980.14
2018-10-11T07:50:36.497Z,98987.94
2018-10-11T07:53:05.110Z,98976.38
2018-10-11T07:55:33.487Z,98978.18
2018-10-11T07:58:01.789Z,98974.79
2018-10-11T08:00:30.699Z,98982.61
2018-10-11T08:03:00.513Z,98977.94
2018-10-11T08:07:05.532Z,98987.53
2018-10-11T08:09:33.750Z,98984.09
2018-10-11T08:12:02.964Z,98979.15
2018-10-11T08:14:31.024Z,98979.38
2018-10-11T08:16:59.358Z,98980.00
2018-10-11T08:19:27.597Z,98980.73
2018-10-11T08:21:55.636Z,98978.39
2018-10-11T08:24:23.441Z,98978.20
2018-10-11T08:26:52.460Z,98979.53
2018-10-11T08:29:20.595Z,98975.92
2018-10-11T08:31:48.852Z,98972.82
2018-10-11T08:34:16.933Z,98971.30
2018-10-11T08:36:45.088Z,98974.03
2018-10-11T08:39:13.856Z,98968.70
2018-10-11T08:41:41.996Z,98963.83
2018-10-11T08:44:11.873Z,98973.98
2018-10-11T08:46:40.691Z,98974.77
2018-10-11T08:49:09.137Z,98972.37
2018-10-11T08:51:37.463Z,98965.81
2018-10-11T08:54:10.962Z,98969.90
2018-10-11T08:56:39.147Z,98978.87
2018-10-11T08:59:07.352Z,98985.42
2018-10-11T09:01:35.503Z,98988.98
2018-10-11T09:04:03.977Z,98992.12
2018-10-11T09:06:32.692Z,98992.82
2018-10-11T09:09:00.861Z,98997.16
2018-10-11T09:11:29.388Z,98994.30
2018-10-11T09:13:57.498Z,98988.31
2018-10-11T09:16:25.675Z,98983.48
2018-10-11T09:18:53.918Z,98976.03
2018-10-11T09:21:22.109Z,98979.03
2018-10-11T09:23:50.265Z,98977.97
2018-10-11T09:26:18.493Z,98983.00
2018-10-11T09:28:47.427Z,98996.66
2018-10-11T09:31:15.599Z,99002.00
2018-10-11T09:33:43.755Z,99004.94
2018-10-11T09:36:12.343Z,99002.26
2018-10-11T09:38:40.523Z,99005.22
2018-10-11T09:41:08.776Z,98997.26
2018-10-11T09:43:37.073Z,98998.91
2018-10-11T09:46:05.244Z,98994.94
2018-10-11T09:48:33.539Z,98993.77
2018-10-11T09:51:01.726Z,98984.73
2018-10-11T09:53:29.982Z,99001.21
2018-10-11T09:55:58.152Z,99011.95
2018-10-11T09:58:26.360Z,99027.89
2018-10-11T10:00:59.947Z,99016.25
2018-10-11T10:03:29.562Z,99009.53
2018-10-11T10:05:57.713Z,99009.98
2018-10-11T10:08:25.879Z,99015.08
2018-10-11T10:10:54.041Z,99005.78
2018-10-11T10:13:22.211Z,99003.59
2018-10-11T18:20:17.577Z,98980.05
2018-10-11T18:22:46.819Z,98969.01
2018-10-11T18:25:15.001Z,98979.30
2018-10-11T18:30:17.581Z,98979.48
2018-10-11T18:32:45.733Z,98979.11
2018-10-11T18:35:13.886Z,98978.20
2018-10-11T18:37:42.053Z,98982.84
2018-10-11T18:40:10.214Z,98979.25
2018-10-11T18:42:38.379Z,98984.19
2018-10-11T18:45:06.919Z,98982.47
2018-10-11T18:47:35.080Z,98976.59
2018-10-11T18:50:03.264Z,98993.22
2018-10-11T18:52:31.427Z,98993.77
2018-10-11T18:54:59.635Z,98985.42
2018-10-11T18:57:28.369Z,98988.42
2018-10-11T18:59:56.523Z,98996.77
2018-10-11T19:02:24.679Z,98998.07
2018-10-11T19:04:53.390Z,98995.00
2018-10-11T19:07:21.531Z,99006.06
2018-10-11T19:09:51.758Z,98999.72
2018-10-11T19:12:23.905Z,98998.95
2018-10-11T19:14:52.147Z,98996.14
2018-10-11T19:17:20.320Z,99002.28
2018-10-11T19:19:49.404Z,98996.70
2018-10-11T19:22:17.563Z,98992.04
2018-10-11T19:24:45.725Z,98989.78
2018-10-11T19:27:13.947Z,98990.25
2018-10-11T19:29:42.209Z,98997.09
2018-10-11T19:32:10.349Z,98997.21
2018-10-11T19:34:38.573Z,99008.83
2018-10-11T19:37:06.765Z,99006.78
2018-10-11T19:39:34.972Z,99000.91
2018-10-11T19:42:03.151Z,98999.64
2018-10-11T19:44:31.308Z,99001.73
2018-10-11T19:46:59.481Z,99006.41
2018-10-11T19:49:27.665Z,99014.02
2018-10-11T19:51:55.807Z,99017.94
2018-10-11T19:54:24.020Z,99018.41
2018-10-11T19:56:52.751Z,99015.17
2018-10-11T19:59:20.912Z,99019.69
2018-10-11T20:01:49.082Z,99020.45
2018-10-11T20:04:17.371Z,99022.91
2018-10-11T20:06:45.519Z,99020.52
2018-10-11T20:09:13.672Z,99023.53
2018-10-11T20:11:41.925Z,99027.52
2018-10-11T20:14:10.256Z,99027.28
2018-10-11T20:16:38.396Z,99027.33
2018-10-11T20:19:06.585Z,99034.64
2018-10-11T20:21:34.779Z,99032.77
2018-10-11T20:24:03.659Z,99029.34
2018-10-11T20:26:31.897Z,99035.20
2018-10-11T20:29:00.111Z,99036.70
2018-10-11T20:31:28.449Z,99044.17
2018-10-11T20:33:57.463Z,99046.45
2018-10-11T20:36:25.741Z,99049.47
2018-10-11T20:38:53.945Z,99054.09
2018-10-11T20:41:22.160Z,99053.42
2018-10-11T20:43:50.476Z,99053.20
2018-10-11T20:46:18.677Z,99045.73
2018-10-11T20:48:47.649Z,99045.12
2018-10-11T20:51:16.130Z,99042.22
2018-10-11T20:53:44.186Z,99049.08
2018-10-11T20:56:12.557Z,99058.73
2018-10-11T20:58:41.460Z,99062.02
2018-10-11T21:01:09.857Z,99068.22
2018-10-11T21:03:38.080Z,99061.83
2018-10-11T21:06:06.240Z,99070.67
2018-10-11T21:08:34.518Z,99065.78
2018-10-11T21:11:02.789Z,99077.86
2018-10-11T21:13:31.126Z,99075.57
2018-10-11T21:15:59.506Z,99081.69
2018-10-11T21:18:27.680Z,99085.00
2018-10-11T21:20:55.840Z,99072.94
2018-10-11T21:23:24.955Z,99072.11
2018-10-11T21:25:53.154Z,99076.81
2018-10-11T21:28:21.432Z,99073.67
2018-10-11T21:30:49.633Z,99081.31
2018-10-11T21:33:18.997Z,99077.55
2018-10-11T21:35:47.167Z,99079.84
2018-10-11T21:38:15.506Z,99082.16
2018-10-11T21:40:43.900Z,99075.98
2018-10-11T21:43:12.152Z,99083.73
2018-10-11T21:45:41.057Z,99084.33
2018-10-11T21:48:09.238Z,99079.35
2018-10-11T21:50:37.372Z,99081.38
2018-10-11T21:53:05.852Z,99083.67
2018-10-11T21:55:34.268Z,99080.16
2018-10-11T21:58:02.444Z,99076.16
2018-10-11T22:00:35.869Z,99086.94
2018-10-11T22:03:04.136Z,99084.61
2018-10-11T22:05:35.725Z,99089.08
2018-10-11T22:08:05.451Z,99086.21
2018-10-11T22:10:34.679Z,99088.58
2018-10-11T22:13:04.529Z,99092.91
2018-10-11T22:15:33.358Z,99093.05
2018-10-11T22:18:01.590Z,99098.98
2018-10-11T22:20:30.769Z,99100.78
2018-10-11T22:22:59.869Z,99102.52
2018-10-11T22:25:30.571Z,99114.86
2018-10-11T22:28:00.181Z,99121.63
2018-10-11T22:30:28.382Z,99126.23
2018-10-11T22:32:56.711Z,99120.20
2018-10-11T22:35:25.000Z,99121.20
2018-10-11T22:37:57.962Z,99127.18
2018-10-11T22:40:26.564Z,99128.67
2018-10-11T22:42:55.041Z,99135.61
2018-10-11T22:45:25.167Z,99135.62
2018-10-11T22:47:54.845Z,99136.95
2018-10-11T22:50:23.563Z,99133.81
2018-10-11T22:52:51.731Z,99134.85
2018-10-11T22:55:19.896Z,99153.94
2018-10-11T22:57:48.193Z,99164.00
2018-10-11T23:00:16.452Z,99165.75
2018-10-11T23:02:44.601Z,99166.92
2018-10-11T23:05:14.757Z,99172.86
2018-10-11T23:07:43.154Z,99173.22
2018-10-11T23:10:11.301Z,99173.81
2018-10-11T23:12:40.040Z,99174.44
2018-10-11T23:15:08.262Z,99179.42
2018-10-11T23:17:36.979Z,99187.28
2018-10-11T23:20:05.639Z,99192.45
2018-10-11T23:22:33.777Z,99201.61
2018-10-11T23:25:02.725Z,99192.19
2018-10-11T23:27:30.957Z,99200.84
2018-10-11T23:29:59.109Z,99197.75
2018-10-11T23:32:27.329Z,99203.15
2018-10-11T23:34:55.505Z,99194.09
2018-10-11T23:37:23.870Z,99192.45
2018-10-11T23:39:52.029Z,99203.50
2018-10-11T23:42:20.212Z,99211.53
2018-10-11T23:44:48.385Z,99212.09
2018-10-11T23:47:17.344Z,99217.77
2018-10-11T23:49:45.541Z,99220.00
2018-10-11T23:52:13.820Z,99209.19
2018-10-11T23:54:42.606Z,99210.55
2018-10-11T23:57:11.273Z,99227.45
2018-10-11T23:59:39.629Z,99215.37
